createdAt,value
2022-09-03T00:00:59.428Z,88.00
2022-09-03T00:01:59.524Z,88.95
2022-09-03T00:02:59.579Z,88.38
2022-09-03T00:03:59.416Z,88.29
2022-09-03T00:04:59.415Z,87.33
2022-09-03T00:05:59.393Z,88.00
2022-09-03T00:06:59.384Z,88.29
2022-09-03T00:07:59.371Z,86.94
2022-09-03T00:08:59.400Z,87.23
2022-09-03T00:09:59.377Z,87.43
2022-09-03T00:10:59.375Z,87.43
2022-09-03T00:11:59.376Z,87.04
2022-09-03T00:12:59.379Z,86.94
2022-09-03T00:13:59.356Z,86.66
2022-09-03T00:14:59.343Z,87.23
2022-09-03T00:15:59.382Z,87.23
2022-09-03T00:16:59.325Z,88.48
2022-09-03T00:17:59.341Z,89.53
2022-09-03T00:18:59.577Z,88.29
2022-09-03T00:19:59.295Z,88.67
2022-09-03T00:20:59.290Z,88.29
2022-09-03T00:21:59.302Z,87.81
2022-09-03T00:22:59.267Z,88.67
2022-09-03T00:23:59.276Z,88.38
2022-09-03T00:24:59.279Z,88.86
2022-09-03T00:25:59.249Z,88.09
2022-09-03T00:26:59.258Z,87.71
2022-09-03T00:27:59.261Z,87.14
2022-09-03T00:28:59.913Z,88.00
2022-09-03T00:29:59.239Z,89.15
2022-09-03T00:30:59.295Z,88.76
2022-09-03T00:31:59.279Z,87.23
2022-09-03T00:32:59.241Z,87.71
2022-09-03T00:33:59.277Z,87.71
2022-09-03T00:34:59.211Z,88.95
2022-09-03T00:35:59.305Z,89.72
2022-09-03T00:36:59.239Z,90.30
2022-09-03T00:37:59.183Z,90.58
2022-09-03T00:38:59.207Z,91.20
2022-09-03T00:39:59.241Z,91.11
2022-09-03T00:40:59.158Z,91.78
2022-09-03T00:41:59.151Z,90.82
2022-09-03T00:42:59.167Z,90.44
2022-09-03T00:43:59.162Z,91.68
2022-09-03T00:44:59.168Z,91.59
2022-09-03T00:45:59.225Z,91.68
2022-09-03T00:46:59.149Z,93.02
2022-09-03T00:47:59.148Z,93.02
2022-09-03T00:48:59.115Z,92.93
2022-09-03T00:49:59.089Z,93.12
2022-09-03T00:50:59.095Z,91.97
2022-09-03T00:51:59.076Z,91.39
2022-09-03T00:52:59.115Z,92.16
2022-09-03T00:53:59.096Z,92.16
2022-09-03T00:54:59.068Z,91.97
2022-09-03T00:55:59.098Z,92.07
2022-09-03T00:56:59.092Z,92.45
2022-09-03T00:57:59.076Z,93.21
2022-09-03T00:58:59.055Z,93.16
2022-09-03T00:59:59.093Z,92.88
2022-09-03T01:00:59.032Z,92.97
2022-09-03T01:01:59.254Z,93.16
2022-09-03T01:02:59.029Z,94.02
2022-09-03T01:03:59.026Z,94.60
2022-09-03T01:04:59.035Z,94.98
2022-09-03T01:06:01.703Z,94.70
2022-09-03T01:06:58.978Z,94.31
2022-09-03T01:07:58.984Z,94.02
2022-09-03T01:08:58.974Z,94.22
2022-09-03T01:09:58.965Z,94.98
2022-09-03T01:10:58.950Z,94.51
2022-09-03T01:11:58.972Z,94.70
2022-09-03T01:12:58.942Z,95.46
2022-09-03T01:13:58.964Z,94.70
2022-09-03T01:14:58.972Z,95.27
2022-09-03T01:15:59.010Z,95.07
2022-09-03T01:16:58.924Z,95.07
2022-09-03T01:17:58.916Z,94.79
2022-09-03T01:18:58.908Z,94.70
2022-09-03T01:19:58.905Z,94.98
2022-09-03T01:20:58.909Z,94.41
2022-09-03T01:21:58.867Z,94.31
2022-09-03T01:22:58.869Z,94.41
2022-09-03T01:23:58.876Z,94.79
2022-09-03T01:24:58.884Z,95.07
2022-09-03T01:25:58.901Z,95.27
2022-09-03T01:26:58.841Z,95.65
2022-09-03T01:27:58.859Z,95.46
2022-09-03T01:28:58.873Z,96.22
2022-09-03T01:29:58.801Z,96.03
2022-09-03T01:30:58.859Z,96.22
2022-09-03T01:31:58.826Z,96.03
2022-09-03T01:32:58.794Z,96.42
2022-09-03T01:33:58.812Z,96.17
2022-09-03T01:34:58.779Z,96.99
2022-09-03T01:35:58.797Z,96.70
2022-09-03T01:36:58.771Z,96.61
2022-09-03T01:37:58.808Z,96.99
2022-09-03T01:38:58.738Z,97.18
2022-09-03T01:39:58.797Z,96.99
2022-09-03T01:40:58.735Z,96.94
2022-09-03T01:41:58.733Z,96.94
2022-09-03T01:42:58.718Z,97.71
2022-09-03T01:43:58.745Z,97.42
2022-09-03T01:44:58.692Z,97.52
2022-09-03T01:45:58.728Z,96.94
2022-09-03T01:46:58.672Z,97.13
2022-09-03T01:47:58.678Z,97.99
2022-09-03T01:48:58.688Z,97.42
2022-09-03T01:49:58.663Z,98.28
2022-09-03T01:50:58.657Z,98.75
2022-09-03T01:51:58.655Z,98.47
2022-09-03T01:52:58.655Z,98.66
2022-09-03T01:53:58.649Z,98.94
2022-09-03T01:54:58.635Z,98.75
2022-09-03T01:55:58.633Z,99.23
2022-09-03T01:56:58.665Z,98.94
2022-09-03T01:57:58.654Z,99.52
2022-09-03T01:58:58.643Z,99.52
2022-09-03T01:59:58.623Z,99.90
2022-09-03T02:00:58.573Z,99.99
2022-09-03T02:01:58.628Z,99.99
2022-09-03T02:02:58.575Z,99.99
2022-09-03T02:03:58.566Z,99.80
2022-09-03T02:04:58.552Z,99.99
2022-09-03T02:05:58.530Z,99.99
2022-09-03T02:06:58.575Z,99.99
2022-09-03T02:07:58.575Z,99.99
2022-09-03T02:08:58.554Z,99.99
2022-09-03T02:09:58.545Z,99.99
2022-09-03T02:10:58.522Z,99.99
2022-09-03T02:11:58.515Z,99.99
2022-09-03T02:12:58.528Z,99.99
2022-09-03T02:13:58.491Z,99.99
2022-09-03T02:14:58.501Z,99.99
2022-09-03T02:15:58.763Z,99.99
2022-09-03T02:16:58.500Z,99.99
2022-09-03T02:17:58.468Z,99.99
2022-09-03T02:18:58.467Z,99.99
2022-09-03T02:19:58.448Z,99.99
2022-09-03T02:20:58.424Z,99.99
2022-09-03T02:21:58.459Z,99.99
2022-09-03T02:22:58.469Z,99.99
2022-09-03T02:23:58.416Z,99.99
2022-09-03T02:24:58.545Z,99.99
2022-09-03T02:25:58.404Z,99.99
2022-09-03T02:26:58.406Z,99.99
2022-09-03T02:27:58.403Z,99.99
2022-09-03T02:28:58.385Z,99.99
2022-09-03T02:29:58.363Z,99.99
2022-09-03T02:30:58.504Z,99.99
2022-09-03T02:31:58.378Z,99.99
2022-09-03T02:32:58.369Z,99.99
2022-09-03T02:33:58.355Z,99.99
2022-09-03T02:34:58.358Z,99.99
2022-09-03T02:35:58.347Z,99.99
2022-09-03T02:36:58.322Z,99.99
2022-09-03T02:37:58.317Z,99.99
2022-09-03T02:38:58.296Z,99.99
2022-09-03T02:39:58.324Z,99.99
2022-09-03T02:40:58.287Z,99.99
2022-09-03T02:41:58.273Z,99.99
2022-09-03T02:42:58.471Z,99.99
2022-09-03T02:43:58.281Z,99.99
2022-09-03T02:44:58.247Z,99.99
2022-09-03T02:45:58.351Z,99.99
2022-09-03T02:46:58.229Z,99.99
2022-09-03T02:47:58.246Z,99.99
2022-09-03T02:48:58.223Z,99.99
2022-09-03T02:49:58.227Z,99.99
2022-09-03T02:50:58.222Z,99.99
2022-09-03T02:51:58.203Z,99.99
2022-09-03T02:52:58.182Z,99.99
2022-09-03T02:53:58.179Z,99.99
2022-09-03T02:54:58.168Z,99.99
2022-09-03T02:55:58.204Z,99.99
2022-09-03T02:56:58.146Z,99.99
2022-09-03T02:57:58.148Z,99.99
2022-09-03T02:58:58.176Z,99.99
2022-09-03T02:59:58.147Z,99.99
2022-09-03T03:00:58.194Z,99.99
2022-09-03T03:02:01.297Z,99.99
2022-09-03T03:02:58.100Z,99.99
2022-09-03T03:03:58.109Z,99.99
2022-09-03T03:04:58.115Z,99.99
2022-09-03T03:05:58.109Z,99.99
2022-09-03T03:06:58.110Z,99.99
2022-09-03T03:07:58.063Z,99.99
2022-09-03T03:08:58.066Z,99.99
2022-09-03T03:09:58.083Z,99.99
2022-09-03T03:10:58.048Z,99.99
2022-09-03T03:11:58.046Z,99.99
2022-09-03T03:12:58.058Z,99.99
2022-09-03T03:13:58.016Z,99.99
2022-09-03T03:14:58.024Z,99.99
2022-09-03T03:15:58.009Z,99.99
2022-09-03T03:16:58.091Z,99.99
2022-09-03T03:17:57.991Z,99.99
2022-09-03T03:18:57.992Z,99.99
2022-09-03T03:19:57.976Z,99.99
2022-09-03T03:20:58.012Z,99.99
2022-09-03T03:21:57.959Z,99.99
2022-09-03T03:22:57.960Z,99.99
2022-09-03T03:23:57.926Z,99.99
2022-09-03T03:24:57.945Z,99.99
2022-09-03T03:25:57.911Z,99.99
2022-09-03T03:26:57.957Z,99.99
2022-09-03T03:27:57.892Z,99.99
2022-09-03T03:28:57.922Z,99.99
2022-09-03T03:29:57.876Z,99.99
2022-09-03T03:30:57.913Z,99.99
2022-09-03T03:31:57.849Z,99.99
2022-09-03T03:32:57.851Z,99.99
2022-09-03T03:33:57.889Z,99.99
2022-09-03T03:34:57.862Z,99.99
2022-09-03T03:35:57.918Z,99.99
2022-09-03T03:36:57.848Z,99.99
2022-09-03T03:37:57.880Z,99.99
2022-09-03T03:38:57.819Z,99.99
2022-09-03T03:39:57.886Z,99.99
2022-09-03T03:40:57.826Z,99.99
2022-09-03T03:41:57.780Z,99.99
2022-09-03T03:42:57.767Z,99.99
2022-09-03T03:43:57.775Z,99.99
2022-09-03T03:44:57.778Z,99.99
2022-09-03T03:45:57.832Z,99.99
2022-09-03T03:46:57.730Z,99.99
2022-09-03T03:47:57.739Z,99.99
2022-09-03T03:48:57.915Z,99.99
2022-09-03T03:49:57.809Z,99.99
2022-09-03T03:50:57.724Z,99.99
2022-09-03T03:51:57.760Z,99.99
2022-09-03T03:52:57.711Z,99.99
2022-09-03T03:54:00.086Z,99.99
2022-09-03T03:54:57.676Z,99.99
2022-09-03T03:55:57.718Z,99.99
2022-09-03T03:56:57.671Z,99.99
2022-09-03T03:57:57.667Z,99.99
2022-09-03T03:58:57.634Z,99.99
2022-09-03T03:59:57.664Z,99.99
2022-09-03T04:00:57.688Z,99.99
2022-09-03T04:01:57.691Z,99.99
2022-09-03T04:02:57.651Z,99.99
2022-09-03T04:03:57.587Z,99.99
2022-09-03T04:04:57.592Z,99.99
2022-09-03T04:05:57.573Z,99.99
2022-09-03T04:06:57.561Z,99.99
2022-09-03T04:07:57.556Z,99.99
2022-09-03T04:08:57.541Z,99.99
2022-09-03T04:09:57.602Z,99.99
2022-09-03T04:10:57.822Z,99.99
2022-09-03T04:11:58.069Z,99.99
2022-09-03T04:12:57.500Z,99.99
2022-09-03T04:13:57.526Z,99.99
2022-09-03T04:14:57.543Z,99.99
2022-09-03T04:15:57.713Z,99.99
2022-09-03T04:16:57.579Z,99.99
2022-09-03T04:17:57.527Z,99.99
2022-09-03T04:18:57.495Z,99.99
2022-09-03T04:19:57.475Z,99.99
2022-09-03T04:20:57.470Z,99.99
2022-09-03T04:21:57.476Z,99.99
2022-09-03T04:22:57.931Z,99.99
2022-09-03T04:23:57.450Z,99.99
2022-09-03T04:24:57.417Z,99.99
2022-09-03T04:25:57.427Z,99.99
2022-09-03T04:26:57.394Z,99.99
2022-09-03T04:27:57.416Z,99.99
2022-09-03T04:28:57.400Z,99.99
2022-09-03T04:29:57.401Z,99.99
2022-09-03T04:30:57.422Z,99.99
2022-09-03T04:31:57.349Z,99.99
2022-09-03T04:32:57.339Z,99.99
2022-09-03T04:33:57.358Z,99.99
2022-09-03T04:34:57.333Z,99.99
2022-09-03T04:35:57.361Z,99.99
2022-09-03T04:36:57.347Z,99.99
2022-09-03T04:37:57.316Z,99.99
2022-09-03T04:38:57.311Z,99.99
2022-09-03T04:39:57.409Z,99.99
2022-09-03T04:40:57.294Z,99.99
2022-09-03T04:41:59.730Z,99.99
2022-09-03T04:42:57.241Z,99.99
2022-09-03T04:43:57.274Z,99.99
2022-09-03T04:44:57.260Z,99.99
2022-09-03T04:45:57.320Z,99.99
2022-09-03T04:46:57.257Z,99.99
2022-09-03T04:47:57.250Z,99.99
2022-09-03T04:48:57.225Z,99.99
2022-09-03T04:49:57.243Z,99.99
2022-09-03T04:50:57.183Z,99.99
2022-09-03T04:51:57.300Z,99.99
2022-09-03T04:52:57.188Z,99.99
2022-09-03T04:53:57.213Z,99.99
2022-09-03T04:54:57.162Z,99.99
2022-09-03T04:55:57.164Z,99.99
2022-09-03T04:56:57.133Z,99.99
2022-09-03T04:57:57.340Z,99.99
2022-09-03T04:58:57.130Z,99.99
2022-09-03T04:59:57.145Z,99.99
2022-09-03T05:00:57.199Z,99.99
2022-09-03T05:01:57.169Z,99.99
2022-09-03T05:02:57.065Z,99.99
2022-09-03T05:03:57.085Z,99.99
2022-09-03T05:04:57.057Z,99.99
2022-09-03T05:05:57.343Z,99.99
2022-09-03T05:06:57.032Z,99.99
2022-09-03T05:07:57.058Z,99.99
2022-09-03T05:08:57.010Z,99.99
2022-09-03T05:09:57.038Z,99.99
2022-09-03T05:10:56.995Z,99.99
2022-09-03T05:11:57.037Z,99.99
2022-09-03T05:12:57.037Z,99.99
2022-09-03T05:13:57.012Z,99.99
2022-09-03T05:14:57.072Z,99.99
2022-09-03T05:15:57.101Z,99.99
2022-09-03T05:16:57.081Z,99.99
2022-09-03T05:17:56.952Z,99.99
2022-09-03T05:18:57.027Z,99.99
2022-09-03T05:19:56.970Z,99.99
2022-09-03T05:20:57.278Z,99.99
2022-09-03T05:21:57.093Z,99.99
2022-09-03T05:22:56.949Z,99.99
2022-09-03T05:23:57.061Z,99.99
2022-09-03T05:24:56.978Z,99.99
2022-09-03T05:25:56.928Z,99.99
2022-09-03T05:26:57.127Z,99.99
2022-09-03T05:27:57.253Z,99.99
2022-09-03T05:28:56.907Z,99.99
2022-09-03T05:29:56.934Z,99.99
2022-09-03T05:30:57.083Z,99.99
2022-09-03T05:31:57.409Z,99.99
2022-09-03T05:32:57.197Z,99.99
2022-09-03T05:33:57.068Z,99.99
2022-09-03T05:34:56.843Z,99.99
2022-09-03T05:35:56.824Z,99.99
2022-09-03T05:36:57.036Z,99.99
2022-09-03T05:37:57.017Z,99.99
2022-09-03T05:38:58.412Z,99.99
2022-09-03T05:39:56.841Z,99.99
2022-09-03T05:40:56.937Z,99.99
2022-09-03T05:41:56.821Z,99.99
2022-09-03T05:42:57.235Z,99.99
2022-09-03T05:43:56.886Z,99.99
2022-09-03T05:44:56.775Z,99.99
2022-09-03T05:45:56.778Z,99.52
2022-09-03T05:46:56.741Z,99.99
2022-09-03T05:47:57.196Z,99.62
2022-09-03T05:48:56.748Z,99.71
2022-09-03T05:49:56.750Z,98.38
2022-09-03T05:50:56.752Z,97.13
2022-09-03T05:51:56.735Z,96.47
2022-09-03T05:52:56.899Z,96.08
2022-09-03T05:53:56.803Z,97.13
2022-09-03T05:54:56.819Z,96.70
2022-09-03T05:55:56.704Z,97.08
2022-09-03T05:56:56.672Z,96.70
2022-09-03T05:57:56.694Z,95.65
2022-09-03T05:58:56.725Z,96.51
2022-09-03T05:59:56.664Z,96.70
2022-09-03T06:00:56.654Z,96.61
2022-09-03T06:02:00.139Z,94.60
2022-09-03T06:02:56.761Z,93.93
2022-09-03T06:03:56.629Z,93.64
2022-09-03T06:04:56.623Z,94.41
2022-09-03T06:05:56.883Z,94.60
2022-09-03T06:06:56.721Z,94.60
2022-09-03T06:07:56.601Z,95.46
2022-09-03T06:08:57.419Z,95.70
2022-09-03T06:09:56.583Z,94.12
2022-09-03T06:10:56.603Z,93.79
2022-09-03T06:11:57.272Z,93.79
2022-09-03T06:12:56.599Z,93.21
2022-09-03T06:13:56.608Z,94.36
2022-09-03T06:14:56.644Z,91.82
2022-09-03T06:15:56.610Z,91.49
2022-09-03T06:16:56.629Z,90.72
2022-09-03T06:17:56.546Z,92.25
2022-09-03T06:18:56.573Z,91.01
2022-09-03T06:19:56.656Z,92.06
2022-09-03T06:20:56.523Z,91.49
2022-09-03T06:21:56.530Z,91.53
2022-09-03T06:22:56.702Z,92.01
2022-09-03T06:23:56.513Z,92.58
2022-09-03T06:24:56.584Z,91.15
2022-09-03T06:25:56.679Z,90.86
2022-09-03T06:26:56.524Z,92.01
2022-09-03T06:27:56.494Z,92.01
2022-09-03T06:28:56.467Z,91.39
2022-09-03T06:29:56.484Z,90.43
2022-09-03T06:30:56.599Z,90.14
2022-09-03T06:31:56.976Z,89.37
2022-09-03T06:32:56.439Z,88.99
2022-09-03T06:33:59.628Z,87.17
2022-09-03T06:34:56.459Z,88.23
2022-09-03T06:35:56.504Z,87.84
2022-09-03T06:36:56.433Z,87.65
2022-09-03T06:37:56.426Z,87.55
2022-09-03T06:38:56.433Z,87.17
2022-09-03T06:39:56.545Z,88.03
2022-09-03T06:40:56.407Z,88.99
2022-09-03T06:41:56.396Z,88.17
2022-09-03T06:42:56.602Z,89.51
2022-09-03T06:43:56.420Z,87.79
2022-09-03T06:44:56.382Z,85.58
2022-09-03T06:45:56.458Z,85.97
2022-09-03T06:46:56.363Z,86.54
2022-09-03T06:47:56.368Z,86.07
2022-09-03T06:48:56.355Z,87.21
2022-09-03T06:49:56.349Z,86.16
2022-09-03T06:50:56.450Z,85.78
2022-09-03T06:51:56.421Z,85.49
2022-09-03T06:52:56.352Z,86.07
2022-09-03T06:53:56.696Z,85.49
2022-09-03T06:54:56.321Z,84.97
2022-09-03T06:55:56.306Z,86.60
2022-09-03T06:56:56.312Z,86.31
2022-09-03T06:57:56.295Z,87.17
2022-09-03T06:58:56.312Z,87.94
2022-09-03T06:59:56.286Z,88.90
2022-09-03T07:00:56.668Z,86.83
2022-09-03T07:01:56.605Z,85.88
2022-09-03T07:02:56.298Z,85.11
2022-09-03T07:03:56.340Z,84.53
2022-09-03T07:04:56.298Z,85.01
2022-09-03T07:05:56.337Z,84.44
2022-09-03T07:06:56.277Z,85.05
2022-09-03T07:07:56.271Z,83.91
2022-09-03T07:08:56.271Z,83.33
2022-09-03T07:09:56.494Z,83.27
2022-09-03T07:10:56.249Z,82.70
2022-09-03T07:11:56.277Z,81.74
2022-09-03T07:12:56.275Z,82.60
2022-09-03T07:13:56.422Z,82.51
2022-09-03T07:14:56.202Z,81.45
2022-09-03T07:15:56.259Z,81.64
2022-09-03T07:16:56.217Z,81.74
2022-09-03T07:17:56.229Z,83.27
2022-09-03T07:18:56.190Z,85.28
2022-09-03T07:19:56.211Z,83.18
2022-09-03T07:20:56.221Z,83.18
2022-09-03T07:21:56.202Z,81.49
2022-09-03T07:22:56.181Z,84.95
2022-09-03T07:23:56.183Z,82.64
2022-09-03T07:24:56.159Z,81.78
2022-09-03T07:25:56.383Z,79.96
2022-09-03T07:26:56.209Z,81.87
2022-09-03T07:27:56.168Z,79.86
2022-09-03T07:28:56.137Z,80.24
2022-09-03T07:29:56.180Z,80.96
2022-09-03T07:30:56.407Z,81.92
2022-09-03T07:31:56.198Z,79.99
2022-09-03T07:32:56.132Z,79.13
2022-09-03T07:33:56.178Z,80.91
2022-09-03T07:34:56.135Z,79.99
2022-09-03T07:35:56.155Z,79.90
2022-09-03T07:36:56.140Z,79.13
2022-09-03T07:37:56.156Z,79.22
2022-09-03T07:38:56.152Z,80.04
2022-09-03T07:39:56.203Z,78.21
2022-09-03T07:40:56.287Z,76.96
2022-09-03T07:41:56.109Z,77.15
2022-09-03T07:42:56.123Z,77.44
2022-09-03T07:43:56.106Z,77.34
2022-09-03T07:44:56.092Z,78.59
2022-09-03T07:45:56.108Z,77.19
2022-09-03T07:46:56.155Z,76.90
2022-09-03T07:47:56.083Z,77.38
2022-09-03T07:48:56.122Z,77.09
2022-09-03T07:49:56.102Z,76.71
2022-09-03T07:50:56.082Z,75.71
2022-09-03T07:51:56.096Z,78.25
2022-09-03T07:52:56.115Z,77.09
2022-09-03T07:53:56.080Z,76.14
2022-09-03T07:54:56.116Z,76.46
2022-09-03T07:55:56.103Z,74.92
2022-09-03T07:56:56.392Z,73.28
2022-09-03T07:57:56.228Z,73.77
2022-09-03T07:58:56.214Z,73.96
2022-09-03T07:59:56.094Z,73.03
2022-09-03T08:00:56.203Z,73.90
2022-09-03T08:01:56.195Z,73.32
2022-09-03T08:02:56.234Z,71.78
2022-09-03T08:03:56.150Z,73.65
2022-09-03T08:04:56.142Z,71.56
2022-09-03T08:05:56.112Z,69.48
2022-09-03T08:06:56.059Z,68.99
2022-09-03T08:07:56.254Z,70.38
2022-09-03T08:08:58.685Z,68.55
2022-09-03T08:09:56.266Z,69.64
2022-09-03T08:10:56.089Z,67.52
2022-09-03T08:11:56.102Z,67.17
2022-09-03T08:12:56.090Z,66.01
2022-09-03T08:13:56.062Z,65.82
2022-09-03T08:14:56.160Z,65.30
2022-09-03T08:15:56.131Z,64.43
2022-09-03T08:16:56.075Z,64.34
2022-09-03T08:17:56.084Z,65.63
2022-09-03T08:18:56.191Z,65.08
2022-09-03T08:19:56.091Z,64.92
2022-09-03T08:20:56.102Z,64.63
2022-09-03T08:21:56.108Z,61.99
2022-09-03T08:22:56.279Z,62.08
2022-09-03T08:23:56.122Z,65.27
2022-09-03T08:24:56.285Z,66.36
2022-09-03T08:25:56.527Z,60.69
2022-09-03T08:26:56.079Z,59.44
2022-09-03T08:27:56.271Z,59.95
2022-09-03T08:28:56.094Z,58.98
2022-09-03T08:29:56.187Z,58.86
2022-09-03T08:30:56.088Z,59.63
2022-09-03T08:31:56.207Z,59.99
2022-09-03T08:32:56.106Z,59.80
2022-09-03T08:33:56.127Z,60.86
2022-09-03T08:34:56.099Z,61.54
2022-09-03T08:35:56.148Z,59.48
2022-09-03T08:36:56.096Z,60.18
2022-09-03T08:37:56.957Z,61.31
2022-09-03T08:38:56.085Z,60.35
2022-09-03T08:39:56.184Z,61.92
2022-09-03T08:40:56.094Z,60.11
2022-09-03T08:41:56.121Z,57.73
2022-09-03T08:42:56.091Z,56.67
2022-09-03T08:43:56.125Z,56.15
2022-09-03T08:44:56.106Z,59.34
2022-09-03T08:45:56.102Z,59.01
2022-09-03T08:46:56.190Z,57.86
2022-09-03T08:47:56.142Z,57.56
2022-09-03T08:48:56.085Z,56.92
2022-09-03T08:49:56.137Z,57.53
2022-09-03T08:50:56.084Z,55.98
2022-09-03T08:51:56.433Z,55.73
2022-09-03T08:52:56.082Z,55.43
2022-09-03T08:53:56.097Z,56.70
2022-09-03T08:54:56.081Z,56.98
2022-09-03T08:55:56.346Z,58.44
2022-09-03T08:56:56.138Z,57.79
2022-09-03T08:57:56.128Z,56.07
2022-09-03T08:58:56.214Z,54.23
2022-09-03T08:59:56.126Z,54.13
2022-09-03T09:00:56.220Z,54.03
2022-09-03T09:01:56.214Z,53.94
2022-09-03T09:02:56.271Z,53.29
2022-09-03T09:03:56.122Z,53.00
2022-09-03T09:04:56.189Z,52.42
2022-09-03T09:05:56.120Z,54.16
2022-09-03T09:06:56.131Z,52.51
2022-09-03T09:07:56.115Z,52.44
2022-09-03T09:08:56.093Z,53.19
2022-09-03T09:09:56.130Z,54.16
2022-09-03T09:10:56.077Z,54.77
2022-09-03T09:11:56.127Z,52.15
2022-09-03T09:12:56.109Z,52.49
2022-09-03T09:13:56.106Z,53.75
2022-09-03T09:14:56.065Z,54.33
2022-09-03T09:15:56.234Z,54.06
2022-09-03T09:16:56.102Z,54.16
2022-09-03T09:17:56.284Z,53.87
2022-09-03T09:18:56.300Z,53.85
2022-09-03T09:19:56.061Z,53.36
2022-09-03T09:20:56.072Z,53.55
2022-09-03T09:21:56.089Z,54.52
2022-09-03T09:22:56.114Z,55.78
2022-09-03T09:23:56.073Z,54.16
2022-09-03T09:24:56.151Z,53.09
2022-09-03T09:25:56.079Z,52.00
2022-09-03T09:26:56.054Z,54.01
2022-09-03T09:27:56.071Z,53.79
2022-09-03T09:28:56.329Z,55.05
2022-09-03T09:29:56.052Z,54.83
2022-09-03T09:30:56.096Z,57.15
2022-09-03T09:31:56.105Z,56.76
2022-09-03T09:32:56.086Z,55.77
2022-09-03T09:33:56.059Z,55.83
2022-09-03T09:34:56.071Z,55.96
2022-09-03T09:35:56.175Z,55.38
2022-09-03T09:36:56.080Z,56.83
2022-09-03T09:37:56.121Z,56.83
2022-09-03T09:38:56.069Z,53.81
2022-09-03T09:39:56.107Z,54.77
2022-09-03T09:40:56.082Z,56.61
2022-09-03T09:41:56.055Z,56.13
2022-09-03T09:42:56.033Z,56.22
2022-09-03T09:43:56.057Z,55.83
2022-09-03T09:44:56.163Z,54.58
2022-09-03T09:45:56.019Z,56.03
2022-09-03T09:46:56.080Z,55.35
2022-09-03T09:47:56.007Z,55.26
2022-09-03T09:48:56.159Z,53.03
2022-09-03T09:49:56.051Z,52.53
2022-09-03T09:50:56.050Z,52.65
2022-09-03T09:51:56.030Z,53.30
2022-09-03T09:52:59.078Z,55.35
2022-09-03T09:53:56.026Z,53.33
2022-09-03T09:54:56.012Z,52.91
2022-09-03T09:55:56.229Z,52.33
2022-09-03T09:56:56.009Z,53.11
2022-09-03T09:57:56.002Z,54.19
2022-09-03T09:58:56.113Z,54.58
2022-09-03T09:59:56.010Z,52.26
2022-09-03T10:00:56.142Z,51.59
2022-09-03T10:01:56.056Z,51.97
2022-09-03T10:02:56.122Z,53.01
2022-09-03T10:03:55.963Z,53.30
2022-09-03T10:04:55.958Z,52.53
2022-09-03T10:05:55.966Z,52.98
2022-09-03T10:06:55.970Z,53.08
2022-09-03T10:07:56.313Z,54.43
2022-09-03T10:08:56.238Z,54.53
2022-09-03T10:09:56.163Z,54.43
2022-09-03T10:10:56.188Z,54.17
2022-09-03T10:11:56.203Z,53.30
2022-09-03T10:12:55.925Z,53.97
2022-09-03T10:13:55.909Z,53.30
2022-09-03T10:14:55.951Z,53.91
2022-09-03T10:15:56.019Z,53.33
2022-09-03T10:16:56.087Z,53.42
2022-09-03T10:17:55.926Z,52.09
2022-09-03T10:18:55.904Z,52.75
2022-09-03T10:19:55.915Z,52.94
2022-09-03T10:20:56.220Z,54.22
2022-09-03T10:21:56.191Z,53.81
2022-09-03T10:22:56.896Z,52.75
2022-09-03T10:23:55.906Z,51.97
2022-09-03T10:24:55.916Z,53.78
2022-09-03T10:25:55.894Z,55.65
2022-09-03T10:26:55.920Z,54.00
2022-09-03T10:27:55.913Z,53.71
2022-09-03T10:28:56.068Z,53.13
2022-09-03T10:29:55.889Z,53.33
2022-09-03T10:30:55.940Z,54.10
2022-09-03T10:31:55.853Z,54.29
2022-09-03T10:32:55.864Z,53.52
2022-09-03T10:33:55.869Z,52.48
2022-09-03T10:34:56.181Z,49.95
2022-09-03T10:35:55.864Z,50.91
2022-09-03T10:36:55.891Z,52.00
2022-09-03T10:37:55.847Z,53.06
2022-09-03T10:38:55.837Z,51.61
2022-09-03T10:39:55.950Z,51.71
2022-09-03T10:40:55.835Z,50.91
2022-09-03T10:41:55.884Z,51.03
2022-09-03T10:42:55.837Z,52.00
2022-09-03T10:43:55.840Z,51.68
2022-09-03T10:44:56.088Z,51.87
2022-09-03T10:45:55.888Z,51.97
2022-09-03T10:46:55.852Z,52.17
2022-09-03T10:47:55.841Z,51.78
2022-09-03T10:48:55.804Z,50.81
2022-09-03T10:49:55.857Z,52.94
2022-09-03T10:50:55.809Z,53.71
2022-09-03T10:51:55.803Z,52.84
2022-09-03T10:52:55.801Z,52.65
2022-09-03T10:53:55.802Z,53.39
2022-09-03T10:54:55.830Z,52.62
2022-09-03T10:55:55.797Z,53.01
2022-09-03T10:56:55.814Z,52.94
2022-09-03T10:57:55.972Z,52.65
2022-09-03T10:58:55.791Z,52.55
2022-09-03T10:59:55.783Z,53.23
2022-09-03T11:00:55.796Z,54.49
2022-09-03T11:01:55.873Z,52.45
2022-09-03T11:02:55.807Z,52.65
2022-09-03T11:03:55.773Z,53.33
2022-09-03T11:04:55.777Z,54.49
2022-09-03T11:05:55.769Z,53.71
2022-09-03T11:06:55.762Z,53.83
2022-09-03T11:07:55.767Z,52.29
2022-09-03T11:08:55.758Z,53.74
2022-09-03T11:09:55.774Z,53.35
2022-09-03T11:10:55.737Z,51.61
2022-09-03T11:11:55.918Z,52.97
2022-09-03T11:12:55.721Z,51.71
2022-09-03T11:13:55.748Z,51.90
2022-09-03T11:14:56.183Z,53.19
2022-09-03T11:15:56.123Z,51.93
2022-09-03T11:16:55.891Z,50.45
2022-09-03T11:17:55.739Z,51.13
2022-09-03T11:18:55.828Z,51.64
2022-09-03T11:19:55.706Z,52.02
2022-09-03T11:20:55.720Z,53.19
2022-09-03T11:21:56.002Z,52.00
2022-09-03T11:22:56.204Z,51.90
2022-09-03T11:23:55.938Z,52.00
2022-09-03T11:24:55.752Z,52.75
2022-09-03T11:25:55.705Z,52.36
2022-09-03T11:26:55.697Z,52.26
2022-09-03T11:27:56.723Z,51.68
2022-09-03T11:28:55.730Z,53.13
2022-09-03T11:29:55.681Z,51.78
2022-09-03T11:30:55.745Z,54.10
2022-09-03T11:31:55.665Z,54.19
2022-09-03T11:32:56.084Z,52.17
2022-09-03T11:33:55.704Z,52.07
2022-09-03T11:34:55.662Z,51.87
2022-09-03T11:35:55.654Z,51.97
2022-09-03T11:36:55.707Z,52.36
2022-09-03T11:37:55.676Z,52.84
2022-09-03T11:38:55.739Z,52.55
2022-09-03T11:39:56.532Z,53.13
2022-09-03T11:40:55.687Z,55.19
2022-09-03T11:41:55.645Z,54.22
2022-09-03T11:42:55.722Z,53.06
2022-09-03T11:44:00.063Z,53.13
2022-09-03T11:44:55.635Z,51.97
2022-09-03T11:45:55.651Z,52.75
2022-09-03T11:46:55.649Z,54.49
2022-09-03T11:47:55.631Z,54.32
2022-09-03T11:48:55.653Z,53.06
2022-09-03T11:49:55.620Z,50.91
2022-09-03T11:50:55.836Z,53.23
2022-09-03T11:51:55.605Z,55.29
2022-09-03T11:52:55.610Z,52.97
2022-09-03T11:53:55.592Z,52.97
2022-09-03T11:54:55.601Z,51.81
2022-09-03T11:55:55.582Z,51.59
2022-09-03T11:56:55.624Z,51.68
2022-09-03T11:57:55.582Z,52.97
2022-09-03T11:58:55.817Z,54.61
2022-09-03T11:59:55.574Z,54.05
2022-09-03T12:00:55.567Z,52.34
2022-09-03T12:01:55.572Z,52.14
2022-09-03T12:02:58.977Z,50.60
2022-09-03T12:03:55.604Z,52.05
2022-09-03T12:04:55.837Z,52.34
2022-09-03T12:05:55.731Z,50.50
2022-09-03T12:06:55.566Z,50.12
2022-09-03T12:07:55.607Z,52.14
2022-09-03T12:08:55.548Z,52.12
2022-09-03T12:09:55.644Z,51.73
2022-09-03T12:10:55.553Z,52.12
2022-09-03T12:11:55.645Z,52.22
2022-09-03T12:12:55.537Z,52.31
2022-09-03T12:13:55.801Z,51.93
2022-09-03T12:14:55.746Z,52.87
2022-09-03T12:15:55.832Z,52.97
2022-09-03T12:16:55.544Z,54.03
2022-09-03T12:17:55.535Z,54.29
2022-09-03T12:18:55.539Z,53.23
2022-09-03T12:19:55.584Z,53.71
2022-09-03T12:20:55.542Z,55.35
2022-09-03T12:21:55.541Z,55.29
2022-09-03T12:22:55.735Z,54.22
2022-09-03T12:23:58.462Z,55.51
2022-09-03T12:24:55.551Z,54.44
2022-09-03T12:25:55.508Z,53.47
2022-09-03T12:26:55.532Z,53.09
2022-09-03T12:27:55.513Z,54.44
2022-09-03T12:28:55.516Z,52.22
2022-09-03T12:29:55.521Z,54.15
2022-09-03T12:30:55.545Z,54.15
2022-09-03T12:31:55.691Z,53.96
2022-09-03T12:32:55.485Z,51.93
2022-09-03T12:33:55.499Z,52.41
2022-09-03T12:34:55.481Z,53.28
2022-09-03T12:35:59.381Z,52.82
2022-09-03T12:36:55.489Z,51.86
2022-09-03T12:38:14.954Z,53.11
2022-09-03T12:39:12.665Z,53.89
2022-09-03T12:40:10.765Z,52.75
2022-09-03T12:41:55.477Z,51.37
2022-09-03T12:43:37.196Z,51.95
2022-09-03T12:43:55.822Z,53.21
2022-09-03T12:44:55.457Z,50.98
2022-09-03T12:46:11.412Z,51.56
2022-09-03T12:47:34.364Z,51.56
2022-09-03T12:47:55.465Z,52.02
2022-09-03T12:49:55.423Z,52.22
2022-09-03T12:50:56.509Z,51.15
2022-09-03T12:51:58.231Z,52.02
2022-09-03T12:52:55.434Z,53.79
2022-09-03T12:53:55.440Z,52.34
2022-09-03T12:54:55.421Z,54.27